Time;durP1;ratioP1;P1;durP2;ratioP2;P2;SDS_P1;SDS_P2;PMS_P1;PMS_P2;Temp;Humidity;BMP_temperature;BMP_pressure;BME280_temperature;BME280_humidity;BME280_pressure;Samples;Min_cycle;Max_cycle;Signal;HPM_P1;HPM_P2
2021/06/07 00:02:16;;;;;;;29.47;26.47;;;15.90;99.90;;;;;;5057966;28;20541;-77
2021/06/07 00:04:43;;;;;;;29.27;26.33;;;15.80;99.90;;;;;;5061763;28;20488;-77
2021/06/07 00:07:10;;;;;;;31.80;28.50;;;15.80;99.90;;;;;;5055787;28;20661;-75
2021/06/07 00:09:39;;;;;;;34.57;29.50;;;15.80;99.90;;;;;;5062603;28;20501;-77
2021/06/07 00:12:10;;;;;;;41.23;29.37;;;15.80;99.90;;;;;;5062210;28;20569;-78
2021/06/07 00:14:37;;;;;;;31.50;28.10;;;15.70;99.90;;;;;;5056551;28;20570;-77
2021/06/07 00:17:05;;;;;;;32.40;28.17;;;15.70;99.90;;;;;;5059098;28;20560;-76
2021/06/07 00:19:33;;;;;;;33.53;29.90;;;15.70;99.90;;;;;;5059782;28;20445;-76
2021/06/07 00:22:00;;;;;;;42.53;31.03;;;15.70;99.90;;;;;;5051987;28;20473;-76
2021/06/07 00:24:27;;;;;;;38.57;31.20;;;15.70;99.90;;;;;;5063028;28;21254;-78
2021/06/07 00:26:55;;;;;;;33.53;30.00;;;15.70;99.90;;;;;;5054166;28;20442;-77
2021/06/07 00:29:21;;;;;;;49.00;32.93;;;15.60;99.90;;;;;;5056356;28;20535;-76
2021/06/07 00:31:48;;;;;;;33.10;29.50;;;15.60;99.90;;;;;;5064037;28;20454;-77
2021/06/07 00:34:14;;;;;;;37.33;31.47;;;15.60;99.90;;;;;;5060339;28;20548;-76
2021/06/07 00:36:41;;;;;;;40.20;31.50;;;15.60;99.90;;;;;;5067117;28;20457;-76
2021/06/07 00:39:10;;;;;;;35.60;31.80;;;15.60;99.90;;;;;;5054348;28;20550;-77
2021/06/07 00:41:37;;;;;;;37.47;32.13;;;15.60;99.90;;;;;;5057087;28;20951;-79
2021/06/07 00:44:09;;;;;;;36.30;31.27;;;15.60;99.90;;;;;;5052307;28;20957;-78
2021/06/07 00:46:36;;;;;;;37.23;32.03;;;15.50;99.90;;;;;;5058661;28;20502;-77
2021/06/07 00:49:03;;;;;;;37.47;32.37;;;15.50;99.90;;;;;;5056534;28;20465;-76
2021/06/07 00:51:29;;;;;;;38.70;33.00;;;15.50;99.90;;;;;;5059029;28;20448;-79
2021/06/07 00:53:55;;;;;;;36.80;32.70;;;15.50;99.90;;;;;;5041207;28;20556;-78
2021/06/07 00:56:22;;;;;;;38.03;33.07;;;15.60;99.90;;;;;;5052211;28;20529;-78
2021/06/07 00:58:49;;;;;;;42.27;34.63;;;15.60;99.90;;;;;;5050200;28;20446;-80
2021/06/07 01:01:19;;;;;;;38.37;34.17;;;15.60;99.90;;;;;;5061815;28;20972;-80
2021/06/07 01:03:47;;;;;;;45.40;35.03;;;15.70;99.90;;;;;;5054572;28;20639;-79
2021/06/07 01:06:14;;;;;;;38.00;32.80;;;15.70;99.90;;;;;;5066062;28;20445;-79
2021/06/07 01:08:41;;;;;;;52.17;37.30;;;15.70;99.90;;;;;;5054314;28;20824;-84
2021/06/07 01:11:07;;;;;;;48.07;35.90;;;15.80;99.90;;;;;;5060684;28;20568;-78
2021/06/07 01:13:34;;;;;;;40.90;34.47;;;15.90;99.90;;;;;;5065887;28;20465;-78
2021/06/07 01:16:01;;;;;;;37.43;33.23;;;15.90;99.90;;;;;;5063838;28;20538;-77
2021/06/07 01:18:30;;;;;;;43.53;35.43;;;15.90;99.90;;;;;;5058479;28;20588;-82
2021/06/07 01:20:59;;;;;;;40.90;36.40;;;15.80;99.90;;;;;;5049351;28;20460;-78
2021/06/07 01:23:27;;;;;;;41.73;35.17;;;15.90;99.90;;;;;;5050861;28;20507;-75
2021/06/07 01:25:55;;;;;;;47.60;36.60;;;15.90;99.90;;;;;;5063452;28;20454;-75
2021/06/07 01:28:21;;;;;;;45.53;36.20;;;15.90;99.90;;;;;;5038110;28;20532;-76
2021/06/07 01:30:50;;;;;;;49.57;36.17;;;15.90;99.90;;;;;;5050425;28;20450;-76
2021/06/07 01:33:21;;;;;;;52.67;38.60;;;15.90;99.90;;;;;;5057271;28;20457;-76
2021/06/07 01:35:48;;;;;;;47.53;36.80;;;15.90;99.90;;;;;;5055133;28;20756;-79
2021/06/07 01:38:15;;;;;;;44.33;37.53;;;15.90;99.90;;;;;;5064682;28;20513;-79
2021/06/07 01:40:44;;;;;;;42.60;36.37;;;15.80;99.90;;;;;;5059785;28;20485;-78
2021/06/07 01:43:11;;;;;;;49.40;38.57;;;15.80;99.90;;;;;;5057411;28;20844;-76
2021/06/07 01:45:39;;;;;;;42.43;36.57;;;15.70;99.90;;;;;;5057934;28;20796;-78
2021/06/07 01:48:08;;;;;;;41.33;36.80;;;15.70;99.90;;;;;;5058757;28;21046;-80
2021/06/07 01:50:36;;;;;;;42.00;35.77;;;15.70;99.90;;;;;;5058335;28;20459;-76
2021/06/07 01:53:04;;;;;;;43.23;37.03;;;15.60;99.90;;;;;;5064851;28;20482;-76
2021/06/07 01:55:33;;;;;;;42.27;37.37;;;15.60;99.90;;;;;;5048802;28;20524;-78
2021/06/07 01:58:01;;;;;;;47.90;38.70;;;15.60;99.90;;;;;;5066509;28;20515;-79
2021/06/07 02:00:30;;;;;;;41.93;35.07;;;15.50;99.90;;;;;;5070458;28;20444;-76
2021/06/07 02:02:57;;;;;;;44.23;36.00;;;15.50;99.90;;;;;;5057929;28;20452;-75
2021/06/07 02:05:25;;;;;;;40.13;35.80;;;15.50;99.90;;;;;;5059297;28;20542;-76
2021/06/07 02:07:54;;;;;;;38.63;34.43;;;15.50;99.90;;;;;;5057536;28;20819;-80
2021/06/07 02:10:22;;;;;;;40.03;35.87;;;15.40;99.90;;;;;;5056304;28;20987;-81
2021/06/07 02:12:49;;;;;;;41.30;36.97;;;15.40;99.90;;;;;;5055704;28;20485;-76
2021/06/07 02:15:17;;;;;;;40.87;36.57;;;15.40;99.90;;;;;;5058923;28;20483;-75
2021/06/07 02:17:43;;;;;;;42.77;38.17;;;15.40;99.90;;;;;;5066919;28;20452;-76
2021/06/07 02:20:12;;;;;;;42.93;38.53;;;15.40;99.90;;;;;;5051616;28;20561;-76
2021/06/07 02:22:41;;;;;;;46.17;38.53;;;15.30;99.90;;;;;;5062467;28;20885;-76
2021/06/07 02:25:09;;;;;;;49.40;40.80;;;15.40;99.90;;;;;;5056272;28;20521;-77
2021/06/07 02:27:36;;;;;;;46.30;41.17;;;15.30;99.90;;;;;;5055734;28;20528;-79
2021/06/07 02:30:05;;;;;;;48.07;42.57;;;15.30;99.90;;;;;;5058022;28;20451;-76
2021/06/07 02:32:34;;;;;;;57.40;44.83;;;15.30;99.90;;;;;;5060959;28;20452;-76
2021/06/07 02:35:00;;;;;;;49.30;42.90;;;15.30;99.90;;;;;;5053703;28;20519;-75
2021/06/07 02:37:27;;;;;;;52.07;42.37;;;15.30;99.90;;;;;;5060369;28;20463;-80
2021/06/07 02:39:53;;;;;;;51.57;42.27;;;15.20;99.90;;;;;;5061143;28;20851;-77
2021/06/07 02:42:20;;;;;;;49.23;41.53;;;15.20;99.90;;;;;;5059022;28;20543;-80
2021/06/07 02:44:50;;;;;;;50.80;41.87;;;15.20;99.90;;;;;;5054151;28;20540;-76
2021/06/07 02:47:17;;;;;;;54.73;44.93;;;15.20;99.90;;;;;;5059856;28;20440;-77
2021/06/07 02:49:44;;;;;;;74.10;50.70;;;15.20;99.90;;;;;;5054985;28;20488;-76
2021/06/07 02:52:11;;;;;;;70.23;48.93;;;15.20;99.90;;;;;;5061936;28;20463;-76
2021/06/07 02:54:37;;;;;;;51.43;44.63;;;15.20;99.90;;;;;;5057969;28;20475;-81
2021/06/07 02:57:06;;;;;;;54.73;45.90;;;15.20;99.90;;;;;;5069157;28;20514;-77
2021/06/07 02:59:32;;;;;;;63.50;47.00;;;15.20;99.90;;;;;;5058521;28;20515;-76
2021/06/07 03:01:58;;;;;;;61.63;47.90;;;15.20;99.90;;;;;;5057879;28;20480;-79
2021/06/07 03:04:25;;;;;;;58.80;48.33;;;15.20;99.90;;;;;;5057805;28;20779;-76
2021/06/07 03:06:54;;;;;;;58.60;48.17;;;15.20;99.90;;;;;;5057279;28;20497;-76
2021/06/07 03:09:20;;;;;;;58.53;49.60;;;15.20;99.90;;;;;;5051074;28;20529;-78
2021/06/07 03:11:48;;;;;;;65.10;51.23;;;15.20;99.90;;;;;;5058211;28;21001;-78
2021/06/07 03:14:14;;;;;;;62.23;47.73;;;15.20;99.90;;;;;;5061891;28;20503;-76
2021/06/07 03:16:40;;;;;;;58.50;49.27;;;15.20;99.90;;;;;;5064850;28;20499;-76
2021/06/07 03:19:07;;;;;;;62.87;49.40;;;15.30;99.90;;;;;;5059640;28;20454;-77
2021/06/07 03:21:33;;;;;;;61.53;49.60;;;15.30;99.90;;;;;;5060447;28;20512;-76
2021/06/07 03:24:00;;;;;;;63.93;52.30;;;15.30;99.90;;;;;;5053439;28;20957;-77
2021/06/07 03:26:27;;;;;;;60.77;49.17;;;15.30;99.90;;;;;;5063192;28;20572;-80
2021/06/07 03:28:53;;;;;;;63.10;50.33;;;15.30;99.90;;;;;;5059923;28;20457;-76
2021/06/07 03:31:19;;;;;;;57.30;48.50;;;15.30;99.90;;;;;;5054062;28;20488;-78
2021/06/07 03:33:46;;;;;;;55.60;46.97;;;15.30;99.90;;;;;;5055814;28;20520;-77
2021/06/07 03:36:12;;;;;;;52.17;46.37;;;15.40;99.90;;;;;;5059085;28;20482;-76
2021/06/07 03:38:39;;;;;;;52.77;46.30;;;15.40;99.90;;;;;;5060540;28;20717;-76
2021/06/07 03:41:08;;;;;;;51.20;44.90;;;15.40;99.90;;;;;;5059440;28;20979;-76
2021/06/07 03:43:35;;;;;;;50.80;45.07;;;15.40;99.90;;;;;;5064669;28;20524;-77
2021/06/07 03:46:02;;;;;;;49.80;44.27;;;15.50;99.90;;;;;;5056571;28;20499;-76
2021/06/07 03:48:30;;;;;;;49.97;44.17;;;15.40;99.90;;;;;;5055368;28;20487;-80
2021/06/07 03:50:57;;;;;;;47.67;42.73;;;15.50;99.90;;;;;;5050300;28;20459;-78
2021/06/07 03:53:23;;;;;;;50.63;45.13;;;15.60;99.90;;;;;;5051791;28;20490;-78
2021/06/07 03:55:50;;;;;;;49.87;44.57;;;15.60;99.90;;;;;;5057362;28;20544;-78
2021/06/07 03:58:18;;;;;;;51.93;46.37;;;15.60;99.90;;;;;;5055224;28;21076;-77
2021/06/07 04:00:44;;;;;;;51.50;46.17;;;15.60;99.90;;;;;;5059016;28;20951;-74
2021/06/07 04:03:12;;;;;;;54.93;49.03;;;15.60;99.90;;;;;;5055632;28;20592;-75
2021/06/07 04:05:39;;;;;;;55.37;47.00;;;15.70;99.90;;;;;;5064129;28;20453;-79
2021/06/07 04:08:07;;;;;;;50.80;45.50;;;15.90;99.90;;;;;;5057263;28;21073;-77
2021/06/07 04:10:34;;;;;;;52.90;47.67;;;15.70;99.90;;;;;;5066919;28;20539;-78
2021/06/07 04:13:00;;;;;;;50.93;45.63;;;15.90;99.90;;;;;;5052558;28;20481;-80
2021/06/07 04:15:30;;;;;;;51.47;46.23;;;15.90;99.90;;;;;;5051763;28;20571;-77
2021/06/07 04:17:57;;;;;;;51.40;46.20;;;15.90;99.90;;;;;;5054995;28;20492;-78
2021/06/07 04:20:25;;;;;;;47.77;43.07;;;15.80;99.90;;;;;;5065580;28;20447;-76
2021/06/07 04:22:52;;;;;;;53.00;47.67;;;16.00;99.90;;;;;;5053522;28;20623;-78
2021/06/07 04:25:20;;;;;;;50.60;45.60;;;15.90;99.90;;;;;;5054803;28;20973;-79
2021/06/07 04:27:48;;;;;;;48.07;43.27;;;16.00;99.90;;;;;;5049216;28;20455;-77
2021/06/07 04:30:17;;;;;;;47.13;42.43;;;16.20;99.90;;;;;;5053800;28;20446;-75
2021/06/07 04:32:47;;;;;;;48.20;43.27;;;16.30;99.90;;;;;;5056278;28;20548;-79
2021/06/07 04:35:15;;;;;;;47.03;42.63;;;16.50;99.90;;;;;;5057983;28;20470;-77
2021/06/07 04:37:42;;;;;;;46.87;42.47;;;16.40;99.90;;;;;;5052298;28;20457;-81
2021/06/07 04:40:10;;;;;;;46.63;42.10;;;16.30;99.90;;;;;;5056989;28;20481;-78
2021/06/07 04:42:36;;;;;;;45.03;40.77;;;16.50;99.90;;;;;;5056250;28;20453;-81
2021/06/07 04:45:05;;;;;;;45.77;41.10;;;16.60;99.90;;;;;;5061320;28;20644;-75
2021/06/07 04:47:31;;;;;;;46.20;41.87;;;16.30;99.90;;;;;;5062369;28;20511;-76
2021/06/07 04:49:58;;;;;;;44.53;40.50;;;16.40;99.90;;;;;;5059030;28;20453;-79
2021/06/07 04:52:25;;;;;;;46.40;41.93;;;16.50;99.90;;;;;;5054907;28;20441;-76
2021/06/07 04:54:51;;;;;;;46.67;42.27;;;16.30;99.90;;;;;;5055586;28;20625;-75
2021/06/07 04:57:17;;;;;;;45.83;41.63;;;16.60;99.90;;;;;;5052438;28;20445;-76
2021/06/07 04:59:44;;;;;;;44.53;40.30;;;16.60;99.90;;;;;;5053876;28;20459;-81
2021/06/07 05:02:10;;;;;;;44.43;40.37;;;16.90;99.90;;;;;;5052226;28;20462;-77
2021/06/07 05:04:36;;;;;;;45.73;41.63;;;16.60;99.90;;;;;;5053422;28;20923;-81
2021/06/07 05:07:04;;;;;;;45.17;41.03;;;16.40;99.90;;;;;;5061227;28;20524;-76
2021/06/07 05:09:31;;;;;;;45.70;41.47;;;16.90;99.90;;;;;;5052797;28;20953;-76
2021/06/07 05:11:57;;;;;;;43.90;39.90;;;16.70;99.90;;;;;;5037147;28;65846;-76
2021/06/07 05:14:23;;;;;;;41.50;37.53;;;16.50;99.90;;;;;;5050782;28;21074;-74
2021/06/07 05:16:50;;;;;;;44.13;40.00;;;16.70;99.90;;;;;;5053527;28;20468;-75
2021/06/07 05:19:16;;;;;;;43.80;39.67;;;16.80;99.90;;;;;;5053869;28;20549;-77
2021/06/07 05:21:43;;;;;;;45.37;41.17;;;17.10;99.90;;;;;;5051568;28;20524;-77
2021/06/07 05:24:11;;;;;;;42.53;38.77;;;17.40;99.90;;;;;;5047856;28;20926;-74
2021/06/07 05:26:37;;;;;;;41.90;38.30;;;17.20;99.90;;;;;;5057009;28;20470;-76
2021/06/07 05:29:03;;;;;;;40.97;36.97;;;17.30;99.90;;;;;;5052470;28;20532;-75
2021/06/07 05:31:30;;;;;;;42.43;38.37;;;17.30;99.90;;;;;;5051338;28;20846;-75
2021/06/07 05:33:56;;;;;;;42.93;38.97;;;17.20;99.90;;;;;;5052045;28;20624;-74
2021/06/07 05:36:23;;;;;;;41.73;37.87;;;16.70;99.90;;;;;;5058147;28;20512;-76
2021/06/07 05:38:49;;;;;;;44.43;40.43;;;16.70;99.90;;;;;;5050612;28;20479;-80
2021/06/07 05:41:16;;;;;;;44.33;40.23;;;16.90;99.90;;;;;;5051779;28;20538;-76
2021/06/07 05:43:43;;;;;;;42.87;38.83;;;17.00;99.90;;;;;;5039602;28;20952;-75
2021/06/07 05:46:09;;;;;;;43.37;39.23;;;16.90;99.90;;;;;;5054975;28;20549;-82
2021/06/07 05:48:35;;;;;;;43.73;39.63;;;16.90;99.90;;;;;;5055790;28;21017;-75
2021/06/07 05:51:02;;;;;;;45.27;41.07;;;16.90;99.90;;;;;;5044118;28;20563;-75
2021/06/07 05:53:28;;;;;;;43.27;39.17;;;17.00;99.90;;;;;;5053470;28;20462;-76
2021/06/07 05:55:54;;;;;;;46.03;41.50;;;17.00;99.90;;;;;;5051189;28;20517;-75
2021/06/07 05:58:22;;;;;;;42.40;38.47;;;17.00;99.90;;;;;;5053861;28;20481;-75
2021/06/07 06:00:51;;;;;;;43.07;38.83;;;17.30;99.90;;;;;;5045246;28;20453;-78
2021/06/07 06:03:18;;;;;;;44.50;40.67;;;17.50;99.90;;;;;;5051611;28;20946;-79
2021/06/07 06:05:45;;;;;;;41.00;37.30;;;17.60;99.90;;;;;;5056194;28;20822;-80
2021/06/07 06:08:11;;;;;;;42.40;38.60;;;17.10;99.90;;;;;;5053071;28;20447;-77
2021/06/07 06:10:39;;;;;;;41.87;38.17;;;17.50;99.90;;;;;;5046511;28;21123;-79
2021/06/07 06:13:06;;;;;;;38.83;35.33;;;17.40;99.90;;;;;;5053277;28;20462;-75
2021/06/07 06:15:34;;;;;;;40.60;37.00;;;17.60;99.90;;;;;;5047597;28;20974;-77
2021/06/07 06:18:01;;;;;;;41.47;37.80;;;17.70;99.90;;;;;;5052680;28;20442;-77
2021/06/07 06:20:30;;;;;;;40.50;36.80;;;17.60;99.90;;;;;;5057404;28;20965;-78
2021/06/07 06:22:56;;;;;;;42.03;38.17;;;17.60;99.90;;;;;;5050420;28;20460;-77
2021/06/07 06:25:23;;;;;;;42.40;38.70;;;17.90;99.90;;;;;;5051482;28;20596;-78
2021/06/07 06:27:50;;;;;;;40.13;36.50;;;17.90;99.90;;;;;;5044975;28;20629;-74
2021/06/07 06:30:20;;;;;;;39.83;36.17;;;17.80;99.90;;;;;;5054170;28;20592;-78
2021/06/07 06:32:50;;;;;;;40.33;36.53;;;18.00;99.90;;;;;;5048367;28;20461;-75
2021/06/07 06:35:17;;;;;;;39.90;36.40;;;18.20;99.90;;;;;;5060906;28;20515;-74
2021/06/07 06:37:44;;;;;;;39.57;36.27;;;18.30;99.90;;;;;;5054063;28;20545;-75
2021/06/07 06:40:14;;;;;;;39.83;36.37;;;18.40;99.90;;;;;;5059587;28;20479;-76
2021/06/07 06:42:41;;;;;;;39.20;35.70;;;18.70;99.90;;;;;;5053269;28;20876;-74
2021/06/07 06:45:09;;;;;;;37.27;34.03;;;18.60;99.90;;;;;;5053323;28;20453;-74
2021/06/07 06:47:35;;;;;;;39.53;35.93;;;18.90;99.90;;;;;;5046514;28;20488;-79
2021/06/07 06:50:05;;;;;;;37.53;33.80;;;18.80;99.90;;;;;;5059942;28;20546;-74
2021/06/07 06:52:32;;;;;;;36.57;33.40;;;19.40;99.90;;;;;;5048812;28;20455;-74
2021/06/07 06:54:58;;;;;;;36.07;32.97;;;19.50;99.90;;;;;;5054065;28;20568;-75
2021/06/07 06:57:25;;;;;;;36.80;33.70;;;19.60;99.90;;;;;;5058560;28;20494;-75
2021/06/07 06:59:51;;;;;;;35.90;32.70;;;19.70;99.90;;;;;;5059613;28;20912;-75
2021/06/07 07:02:18;;;;;;;35.30;31.87;;;19.40;99.90;;;;;;5059224;28;20558;-84
2021/06/07 07:04:44;;;;;;;36.27;32.87;;;19.50;99.90;;;;;;5055874;28;20493;-75
2021/06/07 07:07:12;;;;;;;34.07;31.17;;;20.10;99.90;;;;;;5058712;28;20450;-77
2021/06/07 07:09:42;;;;;;;35.53;32.20;;;20.30;99.90;;;;;;5050989;28;20980;-75
2021/06/07 07:12:09;;;;;;;34.80;31.87;;;19.90;99.90;;;;;;5054658;28;20471;-77
2021/06/07 07:14:36;;;;;;;34.73;31.83;;;19.90;99.90;;;;;;5053362;28;21039;-75
2021/06/07 07:17:02;;;;;;;35.53;32.10;;;20.80;99.90;;;;;;5057528;28;20452;-79
2021/06/07 07:19:29;;;;;;;35.60;31.97;;;20.10;99.90;;;;;;5055293;28;20541;-76
2021/06/07 07:21:55;;;;;;;36.53;33.33;;;20.20;99.90;;;;;;5053903;28;20824;-76
2021/06/07 07:24:23;;;;;;;33.50;30.70;;;21.20;99.90;;;;;;5058832;28;20458;-80
2021/06/07 07:26:49;;;;;;;32.77;29.97;;;20.90;99.90;;;;;;5071204;28;20450;-79
2021/06/07 07:29:16;;;;;;;32.23;29.47;;;21.70;99.90;;;;;;5057481;28;20530;-85
2021/06/07 07:31:42;;;;;;;32.67;29.97;;;21.40;99.90;;;;;;5050485;28;20443;-76
2021/06/07 07:34:08;;;;;;;33.87;30.83;;;22.40;99.90;;;;;;5053415;28;20557;-77
2021/06/07 07:36:35;;;;;;;31.80;29.10;;;22.20;99.90;;;;;;5062761;28;20449;-75
2021/06/07 07:39:01;;;;;;;31.13;28.43;;;22.40;99.90;;;;;;5056312;28;20483;-77
2021/06/07 07:41:29;;;;;;;30.40;27.90;;;21.70;99.90;;;;;;5053428;28;20609;-75
2021/06/07 07:43:56;;;;;;;33.03;30.33;;;20.50;99.90;;;;;;5054505;28;20443;-75
2021/06/07 07:46:22;;;;;;;31.70;28.77;;;20.50;99.90;;;;;;5058326;28;20502;-75
2021/06/07 07:48:49;;;;;;;31.80;29.27;;;20.90;99.90;;;;;;5057641;28;20447;-79
2021/06/07 07:51:15;;;;;;;31.43;28.90;;;22.10;99.90;;;;;;5050436;28;20468;-78
2021/06/07 07:53:42;;;;;;;31.37;28.40;;;21.10;99.90;;;;;;5047545;28;20453;-75
2021/06/07 07:56:09;;;;;;;29.80;27.30;;;21.60;99.90;;;;;;5056496;28;20488;-76
2021/06/07 07:58:37;;;;;;;30.37;27.87;;;21.40;99.90;;;;;;5055633;28;20486;-77
2021/06/07 08:01:05;;;;;;;29.53;27.33;;;22.00;99.90;;;;;;5054967;28;20480;-74
2021/06/07 08:03:31;;;;;;;28.60;26.10;;;22.40;99.90;;;;;;5058163;28;21085;-74
2021/06/07 08:05:58;;;;;;;27.60;25.30;;;23.20;99.90;;;;;;5062623;28;20456;-79
2021/06/07 08:08:25;;;;;;;28.73;26.33;;;22.80;99.90;;;;;;5055528;28;20454;-75
2021/06/07 08:10:55;;;;;;;27.80;25.40;;;22.50;99.90;;;;;;5059219;28;20529;-76
2021/06/07 08:13:22;;;;;;;29.40;27.00;;;23.80;99.90;;;;;;5054522;28;20473;-76
2021/06/07 08:15:50;;;;;;;27.20;25.20;;;24.40;99.90;;;;;;5050250;28;20480;-77
2021/06/07 08:18:16;;;;;;;28.63;26.20;;;22.50;99.90;;;;;;5056804;28;20444;-78
2021/06/07 08:20:43;;;;;;;29.10;26.80;;;21.90;99.90;;;;;;5059178;28;20540;-78
2021/06/07 08:23:09;;;;;;;27.20;24.80;;;21.90;99.60;;;;;;5057604;28;20465;-81
2021/06/07 08:25:36;;;;;;;27.10;25.00;;;22.40;99.50;;;;;;5048992;28;20455;-75
2021/06/07 08:28:03;;;;;;;26.70;24.60;;;23.60;97.90;;;;;;5048721;28;20494;-82
2021/06/07 08:30:30;;;;;;;25.17;23.00;;;23.80;93.60;;;;;;5060029;28;20512;-74
2021/06/07 08:32:58;;;;;;;26.13;24.03;;;23.40;90.00;;;;;;5055645;28;20461;-73
2021/06/07 08:35:24;;;;;;;22.23;20.47;;;24.20;81.20;;;;;;5055338;28;20468;-74
2021/06/07 08:37:50;;;;;;;22.80;21.20;;;23.90;81.30;;;;;;5051189;28;20452;-76
2021/06/07 08:40:18;;;;;;;23.00;21.10;;;23.30;78.40;;;;;;5049944;28;20483;-76
2021/06/07 08:42:45;;;;;;;25.57;23.43;;;23.50;78.80;;;;;;5053099;28;20462;-76
2021/06/07 08:45:14;;;;;;;25.10;23.00;;;23.10;80.40;;;;;;5055668;28;20503;-78
2021/06/07 08:47:42;;;;;;;23.83;21.83;;;23.50;78.70;;;;;;5052397;28;20927;-74
2021/06/07 08:50:11;;;;;;;24.67;22.77;;;23.60;77.60;;;;;;5052807;28;20465;-75
2021/06/07 08:52:42;;;;;;;25.30;23.20;;;24.30;78.60;;;;;;5050399;28;20545;-77
2021/06/07 08:55:10;;;;;;;23.80;22.00;;;25.60;77.50;;;;;;5054667;28;20533;-75
2021/06/07 08:57:40;;;;;;;22.30;20.70;;;24.60;75.50;;;;;;5053602;28;20546;-75
2021/06/07 09:00:08;;;;;;;20.80;19.20;;;24.60;76.60;;;;;;5059483;28;20502;-75
2021/06/07 09:02:36;;;;;;;23.33;21.53;;;25.10;76.00;;;;;;5052732;28;20470;-78
2021/06/07 09:05:04;;;;;;;24.10;22.07;;;25.80;74.50;;;;;;5049780;28;20543;-75
2021/06/07 09:07:33;;;;;;;23.93;22.17;;;25.40;74.80;;;;;;5054536;28;20474;-75
2021/06/07 09:10:08;;;;;;;21.90;20.30;;;24.80;73.70;;;;;;5052251;28;20481;-75
2021/06/07 09:12:35;;;;;;;22.33;20.43;;;25.60;75.10;;;;;;5044267;28;20447;-77
2021/06/07 09:15:02;;;;;;;20.53;18.33;;;24.90;73.20;;;;;;5057278;28;20679;-74
2021/06/07 09:17:29;;;;;;;18.70;17.23;;;24.30;73.20;;;;;;5053261;28;20450;-77
2021/06/07 09:20:14;;;;;;;19.23;17.93;;;24.70;72.60;;;;;;5053992;28;20461;-75
2021/06/07 09:22:48;;;;;;;20.10;18.60;;;24.30;72.00;;;;;;5057616;28;20513;-79
2021/06/07 09:25:17;;;;;;;20.50;19.00;;;24.60;72.90;;;;;;5054637;28;20443;-79
2021/06/07 09:28:09;;;;;;;21.33;19.20;;;24.80;71.80;;;;;;5053900;28;20976;-75
2021/06/07 09:30:38;;;;;;;19.97;18.30;;;24.30;70.40;;;;;;5046938;28;20449;-74
2021/06/07 09:33:30;;;;;;;20.03;18.33;;;24.00;71.60;;;;;;5055459;28;20901;-74
2021/06/07 09:36:16;;;;;;;20.57;18.97;;;24.10;73.50;;;;;;5048556;28;20522;-75
2021/06/07 09:39:09;;;;;;;23.20;21.43;;;;;;;;;;5049805;28;20654;-75
2021/06/07 09:41:54;;;;;;;23.93;22.10;;;;;;;;;;5028987;28;20857;-77
2021/06/07 09:44:23;;;;;;;25.50;23.40;;;;;;;;;;5055625;28;20441;-74
2021/06/07 09:46:50;;;;;;;22.87;20.97;;;;;;;;;;5054977;28;20473;-76
2021/06/07 09:49:18;;;;;;;24.03;22.13;;;;;;;;;;5049458;28;20817;-73
2021/06/07 09:51:53;;;;;;;21.87;20.17;;;;;;;;;;5057975;28;20480;-77
2021/06/07 09:54:19;;;;;;;23.67;21.50;;;;;;;;;;5047618;28;20565;-75
2021/06/07 09:56:50;;;;;;;21.80;20.20;;;;;;;;;;5052340;28;21216;-75
2021/06/07 09:59:35;;;;;;;21.53;19.90;;;;;;;;;;5057917;28;20448;-75
2021/06/07 10:02:13;;;;;;;22.80;20.90;;;;;;;;;;5052669;28;20454;-78
2021/06/07 10:04:50;;;;;;;19.67;18.27;;;;;;;;;;5051780;28;20465;-74
2021/06/07 10:07:17;;;;;;;20.90;19.13;;;;;;;;;;5054246;28;20605;-78
2021/06/07 10:10:03;;;;;;;18.17;16.90;;;;;;;;;;5053894;28;20786;-79
2021/06/07 10:12:29;;;;;;;18.10;16.70;;;;;;;;;;5054883;28;20462;-76
2021/06/07 10:14:56;;;;;;;19.87;18.37;;;;;;;;;;5054904;28;20466;-75
2021/06/07 10:17:24;;;;;;;17.83;16.33;;;;;;;;;;5065138;28;20448;-73
2021/06/07 10:20:46;;;;;;;17.10;15.80;;;;;;;;;;5066735;28;20534;-77
2021/06/07 10:22:43;;;;;;;13.43;12.53;;;;;;;;;;5058071;28;20458;-84
2021/06/07 10:25:12;;;;;;;17.47;16.17;;;;;;;;;;5058727;28;20828;-83
2021/06/07 10:27:39;;;;;;;18.40;16.97;;;;;;;;;;5070312;28;20449;-75
2021/06/07 10:30:14;;;;;;;14.60;13.30;;;;;;;;;;5074440;28;20557;-75
2021/06/07 10:32:42;;;;;;;13.63;12.63;;;;;;;;;;5067376;28;20461;-77
2021/06/07 10:35:09;;;;;;;14.07;13.07;;;;;;;;;;5058439;28;21004;-74
2021/06/07 10:37:36;;;;;;;15.67;14.57;;;;;;;;;;5064159;28;20463;-74
2021/06/07 10:40:20;;;;;;;19.00;17.60;;;;;;;;;;5058124;28;20505;-75
2021/06/07 10:42:53;;;;;;;15.90;14.80;;;;;;;;;;5065105;28;20499;-82
2021/06/07 10:45:23;;;;;;;14.53;13.33;;;;;;;;;;5050343;28;20486;-74
2021/06/07 10:47:51;;;;;;;15.23;14.23;;;;;;;;;;5050093;28;20483;-75
2021/06/07 10:50:21;;;;;;;15.87;14.77;;;;;;;;;;5059630;28;21035;-75
2021/06/07 10:52:54;;;;;;;16.00;14.90;;;;;;;;;;5056000;28;20458;-77
2021/06/07 10:55:24;;;;;;;15.63;14.63;;;;;;;;;;5060435;28;20471;-76
2021/06/07 10:57:52;;;;;;;16.77;15.40;;;;;;;;;;5068679;28;20525;-76
2021/06/07 11:00:22;;;;;;;16.20;15.00;;;;;;;;;;5054625;28;20842;-77
2021/06/07 11:02:54;;;;;;;15.97;14.60;;;;;;;;;;5053721;28;20807;-77
2021/06/07 11:05:21;;;;;;;15.03;13.83;;;;;;;;;;5057534;28;20458;-78
2021/06/07 11:08:00;;;;;;;14.87;13.83;;;;;;;;;;5055181;28;20470;-77
2021/06/07 11:10:28;;;;;;;16.00;14.90;;;;;;;;;;5055792;28;20466;-74
2021/06/07 11:12:56;;;;;;;17.33;16.03;;;;;;;;;;5057110;28;20963;-77
2021/06/07 11:15:24;;;;;;;16.80;15.60;;;;;;;;;;5046748;28;20488;-77
2021/06/07 11:17:52;;;;;;;17.90;16.60;;;;;;;;;;5053706;28;20968;-81
2021/06/07 11:20:33;;;;;;;17.33;16.03;;;;;;;;;;5060409;28;20446;-74
2021/06/07 11:23:10;;;;;;;17.80;16.50;;;;;;;;;;5050362;28;20460;-74
2021/06/07 11:25:50;;;;;;;16.93;15.63;;;;;;;;;;5060567;28;20961;-76
2021/06/07 11:28:36;;;;;;;18.43;16.80;;;;;;;;;;5048191;28;20910;-74
2021/06/07 11:31:04;;;;;;;16.80;15.60;;;;;;;;;;5059990;28;20443;-77
2021/06/07 11:33:46;;;;;;;17.40;16.00;;;;;;;;;;5061927;28;20449;-74
2021/06/07 11:36:27;;;;;;;18.43;17.03;;;;;;;;;;5071402;28;20474;-76
2021/06/07 11:39:01;;;;;;;18.73;17.37;;;;;;;;;;5052578;28;20481;-79
2021/06/07 11:41:39;;;;;;;18.63;17.00;;;;;;;;;;5055664;28;20459;-74
2021/06/07 11:44:06;;;;;;;16.63;15.40;;;;;;;;;;5060834;28;20488;-77
2021/06/07 11:46:50;;;;;;;17.93;16.40;;;;;;;;;;5058121;28;20456;-73
2021/06/07 11:49:18;;;;;;;17.70;16.30;;;;;;;;;;5044854;28;20612;-77
2021/06/07 11:51:45;;;;;;;16.40;15.10;;;;;;;;;;5069523;28;20467;-74
2021/06/07 11:54:28;;;;;;;16.70;15.30;;;;;;;;;;5062253;28;20453;-75
2021/06/07 11:56:57;;;;;;;16.20;14.70;;;;;;;;;;5028652;28;20454;-75
2021/06/07 11:59:24;;;;;;;13.83;12.93;;;;;;;;;;5048000;28;20496;-76
2021/06/07 12:01:51;;;;;;;14.53;13.57;;;;;;;;;;5060833;28;20495;-74
2021/06/07 12:04:23;;;;;;;14.50;13.50;;;;;;;;;;5063903;28;20886;-74
2021/06/07 12:06:49;;;;;;;14.67;13.67;;;;;;;;;;5055576;28;20453;-77
2021/06/07 12:09:22;;;;;;;14.00;13.00;;;;;;;;;;5064603;28;20467;-74
2021/06/07 12:11:49;;;;;;;13.50;12.40;;;;;;;;;;5059999;28;20460;-74
2021/06/07 12:14:24;;;;;;;13.53;12.63;;;;;;;;;;5055872;28;20477;-75
2021/06/07 12:16:51;;;;;;;13.13;12.10;;;;;;;;;;5056876;28;20520;-75
2021/06/07 12:19:18;;;;;;;14.23;12.87;;;;;;;;;;5058386;28;20802;-79
2021/06/07 12:21:45;;;;;;;13.43;12.53;;;;;;;;;;5058761;28;20477;-75
2021/06/07 12:24:14;;;;;;;14.13;13.10;;;;;;;;;;5054857;28;20466;-74
2021/06/07 12:29:31;;;;;;;13.67;12.67;;;;;;;;;;5021082;28;20873;-74
2021/06/07 12:32:04;;;;;;;13.70;12.60;;;;;;;;;;5049986;28;20464;-75
2021/06/07 12:34:31;;;;;;;13.53;12.50;;;;;;;;;;5061313;28;20469;-74
2021/06/07 12:36:58;;;;;;;13.70;12.60;;;;;;;;;;5056282;28;20457;-78
2021/06/07 12:39:25;;;;;;;13.60;12.70;;;;;;;;;;5056681;28;20483;-73
2021/06/07 12:41:51;;;;;;;12.10;11.20;;;;;;;;;;5056215;28;20927;-74
2021/06/07 12:44:21;;;;;;;11.57;10.70;;;;;;;;;;5057637;28;20484;-74
2021/06/07 12:46:49;;;;;;;10.70;10.00;;;;;;;;;;5057347;28;20878;-75
2021/06/07 12:49:22;;;;;;;10.60;9.97;;;;;;;;;;5046551;28;20944;-75
2021/06/07 12:51:56;;;;;;;11.07;10.37;;;;;;;;;;5053854;28;20483;-77
2021/06/07 12:54:23;;;;;;;11.27;10.47;;;;;;;;;;5054558;28;20962;-74
2021/06/07 12:56:50;;;;;;;11.37;10.67;;;;;;;;;;5052012;28;21016;-74
2021/06/07 12:59:17;;;;;;;10.07;9.37;;;;;;;;;;5054100;28;20873;-74
2021/06/07 13:01:46;;;;;;;9.33;8.73;;;;;;;;;;5053929;28;20536;-75
2021/06/07 13:04:16;;;;;;;10.40;9.60;;;;;;;;;;5052050;28;20460;-76